sensor_id;sensor_type;location;lat;lon;timestamp;P1;durP1;ratioP1;P2;durP2;ratioP2
1731;SDS011;863;52.268;8.834;2022-08-19T00:01:01;5.60;;;5.00;;
1731;SDS011;863;52.268;8.834;2022-08-19T00:03:26;7.93;;;5.90;;
1731;SDS011;863;52.268;8.834;2022-08-19T00:05:51;6.28;;;5.38;;
1731;SDS011;863;52.268;8.834;2022-08-19T00:08:17;5.80;;;5.30;;
1731;SDS011;863;52.268;8.834;2022-08-19T00:10:42;5.90;;;5.40;;
1731;SDS011;863;52.268;8.834;2022-08-19T00:13:07;5.93;;;5.43;;
1731;SDS011;863;52.268;8.834;2022-08-19T00:15:32;5.60;;;5.10;;
1731;SDS011;863;52.268;8.834;2022-08-19T00:17:57;5.77;;;5.17;;
1731;SDS011;863;52.268;8.834;2022-08-19T00:20:22;8.90;;;7.30;;
1731;SDS011;863;52.268;8.834;2022-08-19T00:22:48;7.50;;;6.23;;
1731;SDS011;863;52.268;8.834;2022-08-19T00:25:13;6.43;;;5.83;;
1731;SDS011;863;52.268;8.834;2022-08-19T00:27:38;6.60;;;6.10;;
1731;SDS011;863;52.268;8.834;2022-08-19T00:30:05;6.17;;;5.57;;
1731;SDS011;863;52.268;8.834;2022-08-19T00:32:31;6.87;;;6.17;;
1731;SDS011;863;52.268;8.834;2022-08-19T00:34:56;6.33;;;5.67;;
1731;SDS011;863;52.268;8.834;2022-08-19T00:37:22;6.53;;;6.03;;
1731;SDS011;863;52.268;8.834;2022-08-19T00:39:48;6.20;;;5.70;;
1731;SDS011;863;52.268;8.834;2022-08-19T00:42:13;9.03;;;6.20;;
1731;SDS011;863;52.268;8.834;2022-08-19T00:44:40;6.43;;;5.93;;
1731;SDS011;863;52.268;8.834;2022-08-19T00:47:05;5.97;;;5.47;;
1731;SDS011;863;52.268;8.834;2022-08-19T00:49:33;6.60;;;6.00;;
1731;SDS011;863;52.268;8.834;2022-08-19T00:54:28;7.13;;;6.43;;
1731;SDS011;863;52.268;8.834;2022-08-19T00:56:53;6.97;;;6.30;;
1731;SDS011;863;52.268;8.834;2022-08-19T00:59:19;7.23;;;6.50;;
1731;SDS011;863;52.268;8.834;2022-08-19T01:01:44;7.90;;;7.20;;
1731;SDS011;863;52.268;8.834;2022-08-19T01:04:10;7.60;;;6.57;;
1731;SDS011;863;52.268;8.834;2022-08-19T01:06:35;6.53;;;5.93;;
1731;SDS011;863;52.268;8.834;2022-08-19T01:09:02;6.77;;;6.17;;
1731;SDS011;863;52.268;8.834;2022-08-19T01:11:27;6.60;;;5.93;;
1731;SDS011;863;52.268;8.834;2022-08-19T01:13:54;6.40;;;5.80;;
1731;SDS011;863;52.268;8.834;2022-08-19T01:16:20;7.53;;;6.73;;
1731;SDS011;863;52.268;8.834;2022-08-19T01:18:46;8.07;;;6.60;;
1731;SDS011;863;52.268;8.834;2022-08-19T01:21:19;7.67;;;6.90;;
1731;SDS011;863;52.268;8.834;2022-08-19T01:23:46;7.30;;;6.60;;
1731;SDS011;863;52.268;8.834;2022-08-19T01:26:17;6.97;;;6.37;;
1731;SDS011;863;52.268;8.834;2022-08-19T01:28:43;7.43;;;6.73;;
1731;SDS011;863;52.268;8.834;2022-08-19T01:31:10;6.63;;;6.13;;
1731;SDS011;863;52.268;8.834;2022-08-19T01:33:36;7.30;;;6.60;;
1731;SDS011;863;52.268;8.834;2022-08-19T01:36:06;7.60;;;6.90;;
1731;SDS011;863;52.268;8.834;2022-08-19T01:38:35;8.30;;;7.33;;
1731;SDS011;863;52.268;8.834;2022-08-19T01:41:01;7.53;;;6.83;;
1731;SDS011;863;52.268;8.834;2022-08-19T01:43:26;7.60;;;6.90;;
1731;SDS011;863;52.268;8.834;2022-08-19T01:45:51;8.23;;;7.37;;
1731;SDS011;863;52.268;8.834;2022-08-19T01:48:17;7.77;;;7.17;;
1731;SDS011;863;52.268;8.834;2022-08-19T01:50:42;8.30;;;7.50;;
1731;SDS011;863;52.268;8.834;2022-08-19T01:53:09;7.40;;;6.80;;
1731;SDS011;863;52.268;8.834;2022-08-19T01:55:36;8.70;;;7.80;;
1731;SDS011;863;52.268;8.834;2022-08-19T01:58:02;8.53;;;7.73;;
1731;SDS011;863;52.268;8.834;2022-08-19T02:00:28;8.90;;;7.60;;
1731;SDS011;863;52.268;8.834;2022-08-19T02:02:54;7.70;;;7.00;;
1731;SDS011;863;52.268;8.834;2022-08-19T02:05:19;9.17;;;8.37;;
1731;SDS011;863;52.268;8.834;2022-08-19T02:07:46;7.90;;;7.17;;
1731;SDS011;863;52.268;8.834;2022-08-19T02:10:13;8.47;;;7.57;;
1731;SDS011;863;52.268;8.834;2022-08-19T02:12:38;7.73;;;7.03;;
1731;SDS011;863;52.268;8.834;2022-08-19T02:15:04;8.33;;;7.50;;
1731;SDS011;863;52.268;8.834;2022-08-19T02:17:29;8.57;;;7.77;;
1731;SDS011;863;52.268;8.834;2022-08-19T02:19:55;7.57;;;6.87;;
1731;SDS011;863;52.268;8.834;2022-08-19T02:22:20;9.30;;;8.13;;
1731;SDS011;863;52.268;8.834;2022-08-19T02:24:45;8.57;;;7.67;;
1731;SDS011;863;52.268;8.834;2022-08-19T02:27:12;9.30;;;7.80;;
1731;SDS011;863;52.268;8.834;2022-08-19T02:29:37;9.47;;;8.57;;
1731;SDS011;863;52.268;8.834;2022-08-19T02:32:03;8.60;;;7.80;;
1731;SDS011;863;52.268;8.834;2022-08-19T02:34:29;9.93;;;9.03;;
1731;SDS011;863;52.268;8.834;2022-08-19T02:36:54;9.50;;;8.60;;
1731;SDS011;863;52.268;8.834;2022-08-19T02:39:19;9.77;;;8.38;;
1731;SDS011;863;52.268;8.834;2022-08-19T02:41:44;9.37;;;8.40;;
1731;SDS011;863;52.268;8.834;2022-08-19T02:44:09;9.17;;;8.27;;
1731;SDS011;863;52.268;8.834;2022-08-19T02:46:35;8.57;;;7.77;;
1731;SDS011;863;52.268;8.834;2022-08-19T02:49:02;9.00;;;8.20;;
1731;SDS011;863;52.268;8.834;2022-08-19T02:51:30;9.33;;;8.43;;
1731;SDS011;863;52.268;8.834;2022-08-19T02:53:55;8.60;;;7.80;;
1731;SDS011;863;52.268;8.834;2022-08-19T02:56:21;8.83;;;7.93;;
1731;SDS011;863;52.268;8.834;2022-08-19T02:58:47;8.47;;;7.40;;
1731;SDS011;863;52.268;8.834;2022-08-19T03:01:19;10.37;;;7.80;;
1731;SDS011;863;52.268;8.834;2022-08-19T03:03:45;8.83;;;8.03;;
1731;SDS011;863;52.268;8.834;2022-08-19T03:06:12;8.83;;;8.03;;
1731;SDS011;863;52.268;8.834;2022-08-19T03:08:38;8.80;;;7.63;;
1731;SDS011;863;52.268;8.834;2022-08-19T03:11:03;10.43;;;8.73;;
1731;SDS011;863;52.268;8.834;2022-08-19T03:13:29;9.07;;;8.27;;
1731;SDS011;863;52.268;8.834;2022-08-19T03:15:54;9.13;;;8.23;;
1731;SDS011;863;52.268;8.834;2022-08-19T03:18:19;9.83;;;8.87;;
1731;SDS011;863;52.268;8.834;2022-08-19T03:20:48;9.80;;;8.90;;
1731;SDS011;863;52.268;8.834;2022-08-19T03:23:14;8.83;;;7.83;;
1731;SDS011;863;52.268;8.834;2022-08-19T03:25:40;9.40;;;8.50;;
1731;SDS011;863;52.268;8.834;2022-08-19T03:28:08;9.57;;;8.67;;
1731;SDS011;863;52.268;8.834;2022-08-19T03:30:33;10.73;;;9.73;;
1731;SDS011;863;52.268;8.834;2022-08-19T03:32:59;9.70;;;8.70;;
1731;SDS011;863;52.268;8.834;2022-08-19T03:35:24;9.43;;;8.40;;
1731;SDS011;863;52.268;8.834;2022-08-19T03:37:49;9.00;;;8.10;;
1731;SDS011;863;52.268;8.834;2022-08-19T03:40:14;9.50;;;8.48;;
1731;SDS011;863;52.268;8.834;2022-08-19T03:42:39;9.35;;;8.45;;
1731;SDS011;863;52.268;8.834;2022-08-19T03:45:07;8.67;;;7.87;;
1731;SDS011;863;52.268;8.834;2022-08-19T03:47:32;9.80;;;8.50;;
1731;SDS011;863;52.268;8.834;2022-08-19T03:49:58;9.65;;;8.57;;
1731;SDS011;863;52.268;8.834;2022-08-19T03:52:23;9.10;;;8.20;;
1731;SDS011;863;52.268;8.834;2022-08-19T03:54:48;9.87;;;8.93;;
1731;SDS011;863;52.268;8.834;2022-08-19T03:57:13;9.47;;;8.47;;
1731;SDS011;863;52.268;8.834;2022-08-19T03:59:38;9.60;;;8.67;;
1731;SDS011;863;52.268;8.834;2022-08-19T04:02:06;10.40;;;9.30;;
1731;SDS011;863;52.268;8.834;2022-08-19T04:04:34;10.03;;;8.70;;
1731;SDS011;863;52.268;8.834;2022-08-19T04:06:59;9.93;;;8.93;;
1731;SDS011;863;52.268;8.834;2022-08-19T04:09:24;9.47;;;8.03;;
1731;SDS011;863;52.268;8.834;2022-08-19T04:11:51;8.60;;;7.80;;
1731;SDS011;863;52.268;8.834;2022-08-19T04:14:20;8.93;;;7.83;;
1731;SDS011;863;52.268;8.834;2022-08-19T04:16:46;8.87;;;8.03;;
1731;SDS011;863;52.268;8.834;2022-08-19T04:19:12;8.93;;;7.90;;
1731;SDS011;863;52.268;8.834;2022-08-19T04:21:37;9.70;;;8.70;;
1731;SDS011;863;52.268;8.834;2022-08-19T04:24:03;9.00;;;7.47;;
1731;SDS011;863;52.268;8.834;2022-08-19T04:26:30;8.90;;;8.00;;
1731;SDS011;863;52.268;8.834;2022-08-19T04:29:00;9.53;;;8.30;;
1731;SDS011;863;52.268;8.834;2022-08-19T04:31:27;8.53;;;7.73;;
1731;SDS011;863;52.268;8.834;2022-08-19T04:33:53;10.10;;;8.00;;
1731;SDS011;863;52.268;8.834;2022-08-19T04:36:23;11.87;;;8.60;;
1731;SDS011;863;52.268;8.834;2022-08-19T04:38:49;10.10;;;8.80;;
1731;SDS011;863;52.268;8.834;2022-08-19T04:41:14;8.47;;;7.60;;
1731;SDS011;863;52.268;8.834;2022-08-19T04:43:58;9.00;;;8.20;;
1731;SDS011;863;52.268;8.834;2022-08-19T04:46:23;9.07;;;8.17;;
1731;SDS011;863;52.268;8.834;2022-08-19T04:48:48;8.73;;;7.83;;
1731;SDS011;863;52.268;8.834;2022-08-19T04:51:14;8.40;;;7.60;;
1731;SDS011;863;52.268;8.834;2022-08-19T04:53:40;8.87;;;8.07;;
1731;SDS011;863;52.268;8.834;2022-08-19T04:56:13;9.00;;;8.10;;
1731;SDS011;863;52.268;8.834;2022-08-19T04:58:39;9.20;;;8.40;;
1731;SDS011;863;52.268;8.834;2022-08-19T05:01:06;9.80;;;8.80;;
1731;SDS011;863;52.268;8.834;2022-08-19T05:03:31;9.00;;;8.07;;
1731;SDS011;863;52.268;8.834;2022-08-19T05:05:58;8.43;;;7.13;;
1731;SDS011;863;52.268;8.834;2022-08-19T05:08:24;7.63;;;6.93;;
1731;SDS011;863;52.268;8.834;2022-08-19T05:10:50;8.47;;;7.00;;
1731;SDS011;863;52.268;8.834;2022-08-19T05:13:16;7.77;;;7.00;;
1731;SDS011;863;52.268;8.834;2022-08-19T05:15:42;9.97;;;7.53;;
1731;SDS011;863;52.268;8.834;2022-08-19T05:18:07;8.27;;;7.40;;
1731;SDS011;863;52.268;8.834;2022-08-19T05:20:51;10.00;;;7.60;;
1731;SDS011;863;52.268;8.834;2022-08-19T05:23:35;8.03;;;6.93;;
1731;SDS011;863;52.268;8.834;2022-08-19T05:26:00;7.50;;;6.80;;
1731;SDS011;863;52.268;8.834;2022-08-19T05:28:26;7.20;;;6.50;;
1731;SDS011;863;52.268;8.834;2022-08-19T05:30:52;7.30;;;6.10;;
1731;SDS011;863;52.268;8.834;2022-08-19T05:33:20;6.83;;;5.80;;
1731;SDS011;863;52.268;8.834;2022-08-19T05:35:45;7.13;;;6.43;;
1731;SDS011;863;52.268;8.834;2022-08-19T05:38:11;7.50;;;6.33;;
1731;SDS011;863;52.268;8.834;2022-08-19T05:40:36;7.73;;;5.93;;
1731;SDS011;863;52.268;8.834;2022-08-19T05:43:03;7.27;;;5.93;;
1731;SDS011;863;52.268;8.834;2022-08-19T05:45:28;6.23;;;5.63;;
1731;SDS011;863;52.268;8.834;2022-08-19T05:47:54;6.30;;;5.80;;
1731;SDS011;863;52.268;8.834;2022-08-19T05:50:19;7.13;;;5.80;;
1731;SDS011;863;52.268;8.834;2022-08-19T05:52:44;6.23;;;5.73;;
1731;SDS011;863;52.268;8.834;2022-08-19T05:55:10;6.83;;;6.13;;
1731;SDS011;863;52.268;8.834;2022-08-19T05:57:35;6.53;;;5.90;;
1731;SDS011;863;52.268;8.834;2022-08-19T06:00:01;7.10;;;6.40;;
1731;SDS011;863;52.268;8.834;2022-08-19T06:02:28;7.17;;;6.47;;
1731;SDS011;863;52.268;8.834;2022-08-19T06:04:53;7.20;;;6.50;;
1731;SDS011;863;52.268;8.834;2022-08-19T06:07:18;7.33;;;6.63;;
1731;SDS011;863;52.268;8.834;2022-08-19T06:09:44;8.50;;;7.70;;
1731;SDS011;863;52.268;8.834;2022-08-19T06:12:09;7.67;;;7.00;;
1731;SDS011;863;52.268;8.834;2022-08-19T06:14:35;9.10;;;8.20;;
1731;SDS011;863;52.268;8.834;2022-08-19T06:17:01;8.90;;;8.03;;
1731;SDS011;863;52.268;8.834;2022-08-19T06:19:27;9.00;;;8.10;;
1731;SDS011;863;52.268;8.834;2022-08-19T06:21:54;9.07;;;8.20;;
1731;SDS011;863;52.268;8.834;2022-08-19T06:24:20;9.60;;;8.70;;
1731;SDS011;863;52.268;8.834;2022-08-19T06:26:48;9.97;;;8.83;;
1731;SDS011;863;52.268;8.834;2022-08-19T06:29:15;9.10;;;8.30;;
1731;SDS011;863;52.268;8.834;2022-08-19T06:31:44;9.97;;;9.10;;
1731;SDS011;863;52.268;8.834;2022-08-19T06:34:10;9.40;;;8.40;;
1731;SDS011;863;52.268;8.834;2022-08-19T06:36:37;22.93;;;10.17;;
1731;SDS011;863;52.268;8.834;2022-08-19T06:39:06;9.73;;;8.73;;
1731;SDS011;863;52.268;8.834;2022-08-19T06:41:34;12.00;;;9.00;;
1731;SDS011;863;52.268;8.834;2022-08-19T06:43:59;8.97;;;8.00;;
1731;SDS011;863;52.268;8.834;2022-08-19T06:46:25;10.10;;;9.20;;
1731;SDS011;863;52.268;8.834;2022-08-19T06:48:51;7.90;;;7.20;;
1731;SDS011;863;52.268;8.834;2022-08-19T06:51:18;8.90;;;8.07;;
1731;SDS011;863;52.268;8.834;2022-08-19T06:53:44;9.37;;;8.47;;
1731;SDS011;863;52.268;8.834;2022-08-19T06:56:12;8.37;;;7.57;;
1731;SDS011;863;52.268;8.834;2022-08-19T06:58:37;8.87;;;7.97;;
1731;SDS011;863;52.268;8.834;2022-08-19T07:01:03;8.90;;;8.10;;
1731;SDS011;863;52.268;8.834;2022-08-19T07:03:29;9.33;;;8.30;;
1731;SDS011;863;52.268;8.834;2022-08-19T07:05:55;8.50;;;7.70;;
1731;SDS011;863;52.268;8.834;2022-08-19T07:08:21;9.53;;;8.63;;
1731;SDS011;863;52.268;8.834;2022-08-19T07:10:46;8.33;;;7.47;;
1731;SDS011;863;52.268;8.834;2022-08-19T07:13:12;8.23;;;7.43;;
1731;SDS011;863;52.268;8.834;2022-08-19T07:15:37;9.03;;;8.23;;
1731;SDS011;863;52.268;8.834;2022-08-19T07:18:03;9.43;;;8.13;;
1731;SDS011;863;52.268;8.834;2022-08-19T07:20:28;8.93;;;8.03;;
1731;SDS011;863;52.268;8.834;2022-08-19T07:22:53;9.02;;;8.23;;
1731;SDS011;863;52.268;8.834;2022-08-19T07:25:18;8.80;;;8.00;;
1731;SDS011;863;52.268;8.834;2022-08-19T07:27:44;7.70;;;7.00;;
1731;SDS011;863;52.268;8.834;2022-08-19T07:30:09;8.57;;;7.80;;
1731;SDS011;863;52.268;8.834;2022-08-19T07:32:36;8.23;;;7.43;;
1731;SDS011;863;52.268;8.834;2022-08-19T07:35:01;8.23;;;7.53;;
1731;SDS011;863;52.268;8.834;2022-08-19T07:37:28;7.27;;;6.57;;
1731;SDS011;863;52.268;8.834;2022-08-19T07:39:53;7.03;;;6.43;;
1731;SDS011;863;52.268;8.834;2022-08-19T07:42:18;6.50;;;5.37;;
1731;SDS011;863;52.268;8.834;2022-08-19T07:44:45;6.13;;;5.20;;
1731;SDS011;863;52.268;8.834;2022-08-19T07:47:11;5.37;;;4.80;;
1731;SDS011;863;52.268;8.834;2022-08-19T07:49:36;5.30;;;4.80;;
1731;SDS011;863;52.268;8.834;2022-08-19T07:52:03;5.07;;;4.50;;
1731;SDS011;863;52.268;8.834;2022-08-19T07:54:30;4.40;;;4.00;;
1731;SDS011;863;52.268;8.834;2022-08-19T07:56:56;5.00;;;4.50;;
1731;SDS011;863;52.268;8.834;2022-08-19T07:59:21;5.70;;;5.10;;
1731;SDS011;863;52.268;8.834;2022-08-19T08:01:47;5.70;;;5.03;;
1731;SDS011;863;52.268;8.834;2022-08-19T08:04:13;4.73;;;4.33;;
1731;SDS011;863;52.268;8.834;2022-08-19T08:06:57;3.90;;;3.37;;
1731;SDS011;863;52.268;8.834;2022-08-19T08:09:41;3.43;;;3.13;;
1731;SDS011;863;52.268;8.834;2022-08-19T08:12:08;6.77;;;3.70;;
1731;SDS011;863;52.268;8.834;2022-08-19T08:14:37;3.30;;;3.00;;
1731;SDS011;863;52.268;8.834;2022-08-19T08:17:03;3.03;;;2.80;;
1731;SDS011;863;52.268;8.834;2022-08-19T08:19:29;2.50;;;2.30;;
1731;SDS011;863;52.268;8.834;2022-08-19T08:21:57;6.90;;;3.00;;
1731;SDS011;863;52.268;8.834;2022-08-19T08:24:22;2.70;;;2.50;;
1731;SDS011;863;52.268;8.834;2022-08-19T08:26:48;3.07;;;2.80;;
1731;SDS011;863;52.268;8.834;2022-08-19T08:29:13;3.67;;;3.37;;
1731;SDS011;863;52.268;8.834;2022-08-19T08:31:40;4.00;;;3.70;;
1731;SDS011;863;52.268;8.834;2022-08-19T08:34:06;4.00;;;3.60;;
1731;SDS011;863;52.268;8.834;2022-08-19T08:36:31;3.47;;;3.17;;
1731;SDS011;863;52.268;8.834;2022-08-19T08:39:00;4.23;;;3.67;;
1731;SDS011;863;52.268;8.834;2022-08-19T08:43:53;4.13;;;3.80;;
1731;SDS011;863;52.268;8.834;2022-08-19T08:46:27;3.77;;;3.30;;
1731;SDS011;863;52.268;8.834;2022-08-19T08:49:05;3.97;;;3.23;;
1731;SDS011;863;52.268;8.834;2022-08-19T08:51:36;3.43;;;3.13;;
1731;SDS011;863;52.268;8.834;2022-08-19T08:54:04;3.97;;;3.57;;
1731;SDS011;863;52.268;8.834;2022-08-19T08:56:31;3.43;;;2.90;;
1731;SDS011;863;52.268;8.834;2022-08-19T09:01:51;3.47;;;3.17;;
1731;SDS011;863;52.268;8.834;2022-08-19T09:04:16;3.17;;;2.93;;
1731;SDS011;863;52.268;8.834;2022-08-19T09:07:06;3.33;;;3.03;;
1731;SDS011;863;52.268;8.834;2022-08-19T09:09:38;3.77;;;2.77;;
1731;SDS011;863;52.268;8.834;2022-08-19T09:15:09;3.27;;;3.00;;
1731;SDS011;863;52.268;8.834;2022-08-19T09:17:36;3.20;;;3.00;;
1731;SDS011;863;52.268;8.834;2022-08-19T09:20:22;3.77;;;2.30;;
1731;SDS011;863;52.268;8.834;2022-08-19T09:22:48;3.90;;;2.73;;
1731;SDS011;863;52.268;8.834;2022-08-19T09:25:19;2.60;;;2.40;;
1731;SDS011;863;52.268;8.834;2022-08-19T09:27:48;2.60;;;2.33;;
1731;SDS011;863;52.268;8.834;2022-08-19T09:30:15;2.47;;;2.27;;
1731;SDS011;863;52.268;8.834;2022-08-19T09:32:40;2.90;;;2.60;;
1731;SDS011;863;52.268;8.834;2022-08-19T09:35:07;3.33;;;3.03;;
1731;SDS011;863;52.268;8.834;2022-08-19T09:37:32;2.67;;;2.47;;
1731;SDS011;863;52.268;8.834;2022-08-19T09:39:58;3.70;;;3.40;;
1731;SDS011;863;52.268;8.834;2022-08-19T09:42:23;3.97;;;3.57;;
1731;SDS011;863;52.268;8.834;2022-08-19T09:44:48;5.17;;;3.53;;
1731;SDS011;863;52.268;8.834;2022-08-19T09:47:13;2.10;;;1.93;;
1731;SDS011;863;52.268;8.834;2022-08-19T09:49:39;2.20;;;2.00;;
1731;SDS011;863;52.268;8.834;2022-08-19T09:52:05;1.80;;;1.43;;
1731;SDS011;863;52.268;8.834;2022-08-19T09:54:31;1.23;;;1.13;;
1731;SDS011;863;52.268;8.834;2022-08-19T09:56:57;3.70;;;2.30;;
1731;SDS011;863;52.268;8.834;2022-08-19T09:59:23;2.00;;;1.90;;
1731;SDS011;863;52.268;8.834;2022-08-19T10:01:48;3.00;;;1.80;;
1731;SDS011;863;52.268;8.834;2022-08-19T10:04:14;1.90;;;1.70;;
1731;SDS011;863;52.268;8.834;2022-08-19T10:06:40;2.13;;;2.00;;
1731;SDS011;863;52.268;8.834;2022-08-19T10:09:06;1.63;;;1.53;;
1731;SDS011;863;52.268;8.834;2022-08-19T10:11:33;2.10;;;1.90;;
1731;SDS011;863;52.268;8.834;2022-08-19T10:13:58;1.70;;;1.60;;
1731;SDS011;863;52.268;8.834;2022-08-19T10:16:24;1.63;;;1.53;;
1731;SDS011;863;52.268;8.834;2022-08-19T10:18:50;2.33;;;2.13;;
1731;SDS011;863;52.268;8.834;2022-08-19T10:21:17;2.33;;;2.13;;
1731;SDS011;863;52.268;8.834;2022-08-19T10:23:43;1.50;;;1.40;;
1731;SDS011;863;52.268;8.834;2022-08-19T10:26:10;2.57;;;2.37;;
1731;SDS011;863;52.268;8.834;2022-08-19T10:28:36;1.83;;;1.30;;
1731;SDS011;863;52.268;8.834;2022-08-19T10:31:08;2.97;;;1.93;;
1731;SDS011;863;52.268;8.834;2022-08-19T10:33:33;1.70;;;1.60;;
1731;SDS011;863;52.268;8.834;2022-08-19T10:35:59;2.27;;;1.60;;
1731;SDS011;863;52.268;8.834;2022-08-19T10:38:24;2.50;;;1.93;;
1731;SDS011;863;52.268;8.834;2022-08-19T10:40:50;1.60;;;1.40;;
1731;SDS011;863;52.268;8.834;2022-08-19T10:43:15;1.50;;;1.40;;
1731;SDS011;863;52.268;8.834;2022-08-19T10:45:41;2.17;;;1.43;;
1731;SDS011;863;52.268;8.834;2022-08-19T10:48:07;2.23;;;1.30;;
1731;SDS011;863;52.268;8.834;2022-08-19T10:50:32;1.97;;;1.23;;
1731;SDS011;863;52.268;8.834;2022-08-19T10:53:16;1.40;;;1.20;;
1731;SDS011;863;52.268;8.834;2022-08-19T10:55:41;1.58;;;1.25;;
1731;SDS011;863;52.268;8.834;2022-08-19T10:58:25;1.60;;;1.50;;
1731;SDS011;863;52.268;8.834;2022-08-19T11:00:51;1.40;;;1.20;;
1731;SDS011;863;52.268;8.834;2022-08-19T11:03:18;1.77;;;1.67;;
1731;SDS011;863;52.268;8.834;2022-08-19T11:05:43;1.37;;;1.20;;
1731;SDS011;863;52.268;8.834;2022-08-19T11:08:08;1.40;;;1.10;;
1731;SDS011;863;52.268;8.834;2022-08-19T11:10:37;1.63;;;1.50;;
1731;SDS011;863;52.268;8.834;2022-08-19T11:13:02;1.60;;;1.40;;
1731;SDS011;863;52.268;8.834;2022-08-19T11:15:27;2.13;;;1.77;;
1731;SDS011;863;52.268;8.834;2022-08-19T11:17:53;1.93;;;1.73;;
1731;SDS011;863;52.268;8.834;2022-08-19T11:20:19;2.03;;;1.30;;
1731;SDS011;863;52.268;8.834;2022-08-19T11:22:44;1.70;;;1.30;;
1731;SDS011;863;52.268;8.834;2022-08-19T11:25:09;1.77;;;1.40;;
1731;SDS011;863;52.268;8.834;2022-08-19T11:27:41;1.30;;;1.20;;
1731;SDS011;863;52.268;8.834;2022-08-19T11:30:08;1.40;;;1.30;;
1731;SDS011;863;52.268;8.834;2022-08-19T11:32:33;1.40;;;1.30;;
1731;SDS011;863;52.268;8.834;2022-08-19T11:34:59;1.50;;;1.33;;
1731;SDS011;863;52.268;8.834;2022-08-19T11:37:24;2.23;;;1.60;;
1731;SDS011;863;52.268;8.834;2022-08-19T11:39:49;2.20;;;1.50;;
1731;SDS011;863;52.268;8.834;2022-08-19T11:42:14;2.23;;;1.50;;
1731;SDS011;863;52.268;8.834;2022-08-19T11:44:58;1.57;;;1.17;;
1731;SDS011;863;52.268;8.834;2022-08-19T11:47:23;1.77;;;1.57;;
1731;SDS011;863;52.268;8.834;2022-08-19T11:49:49;1.73;;;1.43;;
1731;SDS011;863;52.268;8.834;2022-08-19T11:52:14;1.77;;;1.37;;
1731;SDS011;863;52.268;8.834;2022-08-19T11:54:39;1.50;;;1.40;;
1731;SDS011;863;52.268;8.834;2022-08-19T11:57:05;1.70;;;1.30;;
1731;SDS011;863;52.268;8.834;2022-08-19T11:59:30;2.50;;;1.47;;
1731;SDS011;863;52.268;8.834;2022-08-19T12:01:55;1.60;;;1.40;;
1731;SDS011;863;52.268;8.834;2022-08-19T12:04:23;2.00;;;1.50;;
1731;SDS011;863;52.268;8.834;2022-08-19T12:06:48;1.90;;;1.60;;
1731;SDS011;863;52.268;8.834;2022-08-19T12:09:14;2.33;;;1.50;;
1731;SDS011;863;52.268;8.834;2022-08-19T12:11:40;3.63;;;1.67;;
1731;SDS011;863;52.268;8.834;2022-08-19T12:14:06;1.70;;;1.40;;
1731;SDS011;863;52.268;8.834;2022-08-19T12:16:32;3.00;;;2.07;;
1731;SDS011;863;52.268;8.834;2022-08-19T12:18:57;2.63;;;1.57;;
1731;SDS011;863;52.268;8.834;2022-08-19T12:21:24;1.93;;;1.73;;
1731;SDS011;863;52.268;8.834;2022-08-19T12:23:53;1.83;;;1.13;;
1731;SDS011;863;52.268;8.834;2022-08-19T12:26:19;1.60;;;1.10;;
1731;SDS011;863;52.268;8.834;2022-08-19T12:28:45;2.07;;;1.20;;
1731;SDS011;863;52.268;8.834;2022-08-19T12:31:10;1.30;;;1.20;;
1731;SDS011;863;52.268;8.834;2022-08-19T12:33:39;5.07;;;1.90;;
1731;SDS011;863;52.268;8.834;2022-08-19T12:36:05;2.07;;;1.33;;
1731;SDS011;863;52.268;8.834;2022-08-19T12:38:31;1.50;;;1.20;;
1731;SDS011;863;52.268;8.834;2022-08-19T12:40:57;1.90;;;1.40;;
1731;SDS011;863;52.268;8.834;2022-08-19T12:43:22;2.00;;;1.00;;
1731;SDS011;863;52.268;8.834;2022-08-19T12:45:48;1.50;;;1.40;;
1731;SDS011;863;52.268;8.834;2022-08-19T12:48:13;1.50;;;1.13;;
1731;SDS011;863;52.268;8.834;2022-08-19T12:50:39;1.70;;;1.60;;
1731;SDS011;863;52.268;8.834;2022-08-19T12:53:04;1.70;;;1.30;;
1731;SDS011;863;52.268;8.834;2022-08-19T12:55:30;2.10;;;1.60;;
1731;SDS011;863;52.268;8.834;2022-08-19T12:57:55;1.37;;;1.20;;
1731;SDS011;863;52.268;8.834;2022-08-19T13:00:20;1.77;;;1.67;;
1731;SDS011;863;52.268;8.834;2022-08-19T13:02:46;1.97;;;1.80;;
1731;SDS011;863;52.268;8.834;2022-08-19T13:05:13;1.50;;;1.40;;
1731;SDS011;863;52.268;8.834;2022-08-19T13:07:39;2.30;;;1.80;;
1731;SDS011;863;52.268;8.834;2022-08-19T13:10:06;1.53;;;1.40;;
1731;SDS011;863;52.268;8.834;2022-08-19T13:12:32;1.87;;;1.77;;
1731;SDS011;863;52.268;8.834;2022-08-19T13:14:57;1.60;;;1.50;;
1731;SDS011;863;52.268;8.834;2022-08-19T13:17:22;1.40;;;1.30;;
1731;SDS011;863;52.268;8.834;2022-08-19T13:19:48;1.43;;;1.30;;
1731;SDS011;863;52.268;8.834;2022-08-19T13:22:13;6.47;;;2.27;;
1731;SDS011;863;52.268;8.834;2022-08-19T13:24:38;3.77;;;1.60;;
1731;SDS011;863;52.268;8.834;2022-08-19T13:27:04;10.80;;;2.07;;
1731;SDS011;863;52.268;8.834;2022-08-19T13:29:29;1.50;;;1.30;;
1731;SDS011;863;52.268;8.834;2022-08-19T13:32:13;1.60;;;1.50;;
1731;SDS011;863;52.268;8.834;2022-08-19T13:35:04;1.80;;;1.70;;
1731;SDS011;863;52.268;8.834;2022-08-19T13:37:30;1.50;;;1.40;;
1731;SDS011;863;52.268;8.834;2022-08-19T13:40:12;1.43;;;1.33;;
1731;SDS011;863;52.268;8.834;2022-08-19T13:42:40;1.77;;;1.53;;
1731;SDS011;863;52.268;8.834;2022-08-19T13:45:06;4.17;;;1.80;;
1731;SDS011;863;52.268;8.834;2022-08-19T13:47:31;1.67;;;1.43;;
1731;SDS011;863;52.268;8.834;2022-08-19T13:49:57;1.90;;;1.40;;
1731;SDS011;863;52.268;8.834;2022-08-19T13:52:22;1.50;;;1.10;;
1731;SDS011;863;52.268;8.834;2022-08-19T13:54:47;1.20;;;1.00;;
1731;SDS011;863;52.268;8.834;2022-08-19T13:57:13;2.57;;;1.37;;
1731;SDS011;863;52.268;8.834;2022-08-19T13:59:38;1.50;;;1.33;;
1731;SDS011;863;52.268;8.834;2022-08-19T14:02:04;1.27;;;1.10;;
1731;SDS011;863;52.268;8.834;2022-08-19T14:04:30;1.47;;;1.37;;
1731;SDS011;863;52.268;8.834;2022-08-19T14:06:55;1.53;;;1.40;;
1731;SDS011;863;52.268;8.834;2022-08-19T14:09:20;3.30;;;1.53;;
1731;SDS011;863;52.268;8.834;2022-08-19T14:11:45;4.18;;;1.35;;
1731;SDS011;863;52.268;8.834;2022-08-19T14:14:11;1.90;;;1.80;;
1731;SDS011;863;52.268;8.834;2022-08-19T14:16:37;1.97;;;1.50;;
1731;SDS011;863;52.268;8.834;2022-08-19T14:19:02;1.80;;;1.70;;
1731;SDS011;863;52.268;8.834;2022-08-19T14:21:27;6.87;;;2.60;;
1731;SDS011;863;52.268;8.834;2022-08-19T14:23:53;1.70;;;1.60;;
1731;SDS011;863;52.268;8.834;2022-08-19T14:26:18;1.93;;;1.43;;
1731;SDS011;863;52.268;8.834;2022-08-19T14:28:44;1.73;;;1.63;;
1731;SDS011;863;52.268;8.834;2022-08-19T14:31:13;3.80;;;1.30;;
1731;SDS011;863;52.268;8.834;2022-08-19T14:33:44;2.27;;;1.73;;
1731;SDS011;863;52.268;8.834;2022-08-19T14:36:09;2.40;;;1.73;;
1731;SDS011;863;52.268;8.834;2022-08-19T14:38:34;1.70;;;1.60;;
1731;SDS011;863;52.268;8.834;2022-08-19T14:41:17;1.90;;;1.80;;
1731;SDS011;863;52.268;8.834;2022-08-19T14:43:50;1.53;;;1.43;;
1731;SDS011;863;52.268;8.834;2022-08-19T14:46:16;2.03;;;1.83;;
1731;SDS011;863;52.268;8.834;2022-08-19T14:48:42;2.07;;;1.40;;
1731;SDS011;863;52.268;8.834;2022-08-19T14:51:07;1.70;;;1.60;;
1731;SDS011;863;52.268;8.834;2022-08-19T14:53:33;1.50;;;1.37;;
1731;SDS011;863;52.268;8.834;2022-08-19T14:55:59;1.97;;;1.50;;
1731;SDS011;863;52.268;8.834;2022-08-19T14:58:24;1.77;;;1.67;;
1731;SDS011;863;52.268;8.834;2022-08-19T15:00:49;4.63;;;1.90;;
1731;SDS011;863;52.268;8.834;2022-08-19T15:03:14;2.07;;;1.87;;
1731;SDS011;863;52.268;8.834;2022-08-19T15:05:39;4.03;;;1.70;;
1731;SDS011;863;52.268;8.834;2022-08-19T15:08:05;2.07;;;1.60;;
1731;SDS011;863;52.268;8.834;2022-08-19T15:10:30;1.77;;;1.60;;
1731;SDS011;863;52.268;8.834;2022-08-19T15:12:56;1.73;;;1.50;;
1731;SDS011;863;52.268;8.834;2022-08-19T15:15:21;3.70;;;1.40;;
1731;SDS011;863;52.268;8.834;2022-08-19T15:17:47;1.60;;;1.50;;
1731;SDS011;863;52.268;8.834;2022-08-19T15:20:15;2.10;;;1.23;;
1731;SDS011;863;52.268;8.834;2022-08-19T15:22:40;1.83;;;1.50;;
1731;SDS011;863;52.268;8.834;2022-08-19T15:25:06;1.47;;;1.33;;
1731;SDS011;863;52.268;8.834;2022-08-19T15:27:32;1.80;;;1.33;;
1731;SDS011;863;52.268;8.834;2022-08-19T15:29:59;1.80;;;1.40;;
1731;SDS011;863;52.268;8.834;2022-08-19T15:32:24;1.60;;;1.50;;
1731;SDS011;863;52.268;8.834;2022-08-19T15:34:50;1.70;;;1.60;;
1731;SDS011;863;52.268;8.834;2022-08-19T15:37:16;2.10;;;1.90;;